sensor_id;sensor_type;location;lat;lon;timestamp;pressure;altitude;pressure_sealevel;temperature;humidity
57234;BME280;43090;52.604;13.318;2023-02-21T00:01:56;100623.28;;;7.60;100.00
57234;BME280;43090;52.604;13.318;2023-02-21T00:04:42;100620.13;;;7.53;100.00
57234;BME280;43090;52.604;13.318;2023-02-21T00:07:27;100632.41;;;7.56;100.00
57234;BME280;43090;52.604;13.318;2023-02-21T00:10:13;100623.88;;;7.65;100.00
57234;BME280;43090;52.604;13.318;2023-02-21T00:12:58;100622.41;;;7.45;100.00
57234;BME280;43090;52.604;13.318;2023-02-21T00:15:44;100628.50;;;7.61;100.00
57234;BME280;43090;52.604;13.318;2023-02-21T00:18:33;100622.03;;;7.51;100.00
57234;BME280;43090;52.604;13.318;2023-02-21T00:21:18;100615.16;;;7.47;100.00
57234;BME280;43090;52.604;13.318;2023-02-21T00:24:03;100620.72;;;7.58;100.00
57234;BME280;43090;52.604;13.318;2023-02-21T00:26:48;100622.81;;;7.53;100.00
57234;BME280;43090;52.604;13.318;2023-02-21T00:29:33;100624.78;;;7.49;100.00
57234;BME280;43090;52.604;13.318;2023-02-21T00:32:18;100612.03;;;7.55;100.00
57234;BME280;43090;52.604;13.318;2023-02-21T00:35:03;100614.13;;;7.49;100.00
57234;BME280;43090;52.604;13.318;2023-02-21T00:37:51;100609.56;;;7.52;100.00
57234;BME280;43090;52.604;13.318;2023-02-21T00:40:36;100614.22;;;7.48;100.00
57234;BME280;43090;52.604;13.318;2023-02-21T00:43:28;100611.19;;;7.54;100.00
57234;BME280;43090;52.604;13.318;2023-02-21T00:46:13;100613.09;;;7.52;100.00
57234;BME280;43090;52.604;13.318;2023-02-21T00:48:58;100611.38;;;7.51;100.00
57234;BME280;43090;52.604;13.318;2023-02-21T00:51:43;100614.72;;;7.55;100.00
57234;BME280;43090;52.604;13.318;2023-02-21T00:54:28;100619.25;;;7.53;100.00
57234;BME280;43090;52.604;13.318;2023-02-21T00:57:15;100616.44;;;7.56;100.00
57234;BME280;43090;52.604;13.318;2023-02-21T01:00:00;100614.91;;;7.52;100.00
57234;BME280;43090;52.604;13.318;2023-02-21T01:02:49;100612.03;;;7.55;100.00
57234;BME280;43090;52.604;13.318;2023-02-21T01:05:34;100615.28;;;7.60;100.00
57234;BME280;43090;52.604;13.318;2023-02-21T01:08:22;100600.53;;;7.54;100.00
57234;BME280;43090;52.604;13.318;2023-02-21T01:11:12;100610.06;;;7.58;100.00
57234;BME280;43090;52.604;13.318;2023-02-21T01:13:57;100595.00;;;7.57;100.00
57234;BME280;43090;52.604;13.318;2023-02-21T01:16:45;100578.25;;;7.55;100.00
57234;BME280;43090;52.604;13.318;2023-02-21T01:19:38;100592.16;;;7.60;100.00
57234;BME280;43090;52.604;13.318;2023-02-21T01:22:23;100591.41;;;7.58;100.00
57234;BME280;43090;52.604;13.318;2023-02-21T01:25:08;100578.84;;;7.60;100.00
57234;BME280;43090;52.604;13.318;2023-02-21T01:27:54;100591.22;;;7.61;100.00
57234;BME280;43090;52.604;13.318;2023-02-21T01:30:39;100588.84;;;7.57;100.00
57234;BME280;43090;52.604;13.318;2023-02-21T01:33:24;100589.69;;;7.57;100.00
57234;BME280;43090;52.604;13.318;2023-02-21T01:36:09;100579.41;;;7.65;100.00
57234;BME280;43090;52.604;13.318;2023-02-21T01:38:54;100581.22;;;7.65;100.00
57234;BME280;43090;52.604;13.318;2023-02-21T01:41:39;100576.94;;;7.62;100.00
57234;BME280;43090;52.604;13.318;2023-02-21T01:44:33;100567.53;;;7.57;100.00
57234;BME280;43090;52.604;13.318;2023-02-21T01:47:18;100589.13;;;7.66;100.00
57234;BME280;43090;52.604;13.318;2023-02-21T01:50:10;100564.28;;;7.66;100.00
57234;BME280;43090;52.604;13.318;2023-02-21T01:52:56;100563.31;;;7.67;100.00
57234;BME280;43090;52.604;13.318;2023-02-21T01:55:42;100560.38;;;7.72;100.00
57234;BME280;43090;52.604;13.318;2023-02-21T01:58:29;100561.13;;;7.74;100.00
57234;BME280;43090;52.604;13.318;2023-02-21T02:01:22;100570.56;;;7.79;100.00
57234;BME280;43090;52.604;13.318;2023-02-21T02:04:15;100567.44;;;7.73;100.00
57234;BME280;43090;52.604;13.318;2023-02-21T02:07:01;100563.16;;;7.70;100.00
57234;BME280;43090;52.604;13.318;2023-02-21T02:09:46;100556.78;;;7.73;100.00
57234;BME280;43090;52.604;13.318;2023-02-21T02:15:39;100566.38;;;7.75;100.00
57234;BME280;43090;52.604;13.318;2023-02-21T02:21:03;100556.19;;;7.82;100.00
57234;BME280;43090;52.604;13.318;2023-02-21T02:26:10;100565.03;;;7.82;100.00
57234;BME280;43090;52.604;13.318;2023-02-21T02:28:59;100567.72;;;7.82;100.00
57234;BME280;43090;52.604;13.318;2023-02-21T02:31:37;100560.56;;;7.83;100.00
57234;BME280;43090;52.604;13.318;2023-02-21T02:36:52;100555.53;;;7.78;100.00
57234;BME280;43090;52.604;13.318;2023-02-21T02:39:28;100556.94;;;7.84;100.00
57234;BME280;43090;52.604;13.318;2023-02-21T02:44:30;100551.03;;;7.93;100.00
57234;BME280;43090;52.604;13.318;2023-02-21T02:46:59;100546.38;;;7.97;100.00
57234;BME280;43090;52.604;13.318;2023-02-21T02:49:28;100546.66;;;7.92;100.00
57234;BME280;43090;52.604;13.318;2023-02-21T02:51:56;100542.09;;;7.94;100.00
57234;BME280;43090;52.604;13.318;2023-02-21T02:54:27;100538.59;;;7.94;100.00
57234;BME280;43090;52.604;13.318;2023-02-21T02:56:54;100525.03;;;7.97;100.00
57234;BME280;43090;52.604;13.318;2023-02-21T02:59:21;100541.31;;;7.92;100.00
57234;BME280;43090;52.604;13.318;2023-02-21T03:01:58;100540.19;;;7.96;100.00
57234;BME280;43090;52.604;13.318;2023-02-21T03:04:33;100541.88;;;7.97;100.00
57234;BME280;43090;52.604;13.318;2023-02-21T03:07:05;100538.00;;;8.03;100.00
57234;BME280;43090;52.604;13.318;2023-02-21T03:09:37;100547.50;;;8.07;100.00
57234;BME280;43090;52.604;13.318;2023-02-21T03:12:43;100535.22;;;8.05;100.00
57234;BME280;43090;52.604;13.318;2023-02-21T03:15:03;100532.56;;;8.05;100.00
57234;BME280;43090;52.604;13.318;2023-02-21T03:17:31;100551.78;;;8.10;100.00
57234;BME280;43090;52.604;13.318;2023-02-21T03:19:59;100537.31;;;7.99;100.00
57234;BME280;43090;52.604;13.318;2023-02-21T03:22:27;100531.63;;;8.06;100.00
57234;BME280;43090;52.604;13.318;2023-02-21T03:24:57;100543.13;;;8.06;100.00
57234;BME280;43090;52.604;13.318;2023-02-21T03:27:24;100535.88;;;8.08;100.00
57234;BME280;43090;52.604;13.318;2023-02-21T03:29:52;100546.00;;;8.03;100.00
57234;BME280;43090;52.604;13.318;2023-02-21T03:32:20;100536.53;;;8.12;100.00
57234;BME280;43090;52.604;13.318;2023-02-21T03:34:47;100543.88;;;8.08;100.00
57234;BME280;43090;52.604;13.318;2023-02-21T03:37:19;100545.69;;;8.08;100.00
57234;BME280;43090;52.604;13.318;2023-02-21T03:39:45;100540.34;;;8.08;100.00
57234;BME280;43090;52.604;13.318;2023-02-21T03:42:12;100547.31;;;8.10;100.00
57234;BME280;43090;52.604;13.318;2023-02-21T03:44:39;100551.97;;;8.07;100.00
57234;BME280;43090;52.604;13.318;2023-02-21T03:47:06;100540.34;;;8.08;100.00
57234;BME280;43090;52.604;13.318;2023-02-21T03:49:32;100540.56;;;8.05;100.00
57234;BME280;43090;52.604;13.318;2023-02-21T03:51:59;100539.63;;;8.06;100.00
57234;BME280;43090;52.604;13.318;2023-02-21T03:54:25;100543.88;;;8.08;100.00
57234;BME280;43090;52.604;13.318;2023-02-21T03:56:52;100535.78;;;8.10;100.00
57234;BME280;43090;52.604;13.318;2023-02-21T03:59:18;100553.59;;;8.09;100.00
57234;BME280;43090;52.604;13.318;2023-02-21T04:01:45;100555.63;;;8.06;100.00
57234;BME280;43090;52.604;13.318;2023-02-21T04:04:14;100559.59;;;8.13;100.00
57234;BME280;43090;52.604;13.318;2023-02-21T04:06:40;100568.53;;;8.12;100.00
57234;BME280;43090;52.604;13.318;2023-02-21T04:09:06;100558.81;;;8.11;100.00
57234;BME280;43090;52.604;13.318;2023-02-21T04:11:33;100574.06;;;8.09;100.00
57234;BME280;43090;52.604;13.318;2023-02-21T04:13:59;100558.53;;;8.15;100.00
57234;BME280;43090;52.604;13.318;2023-02-21T04:16:26;100562.16;;;8.14;100.00
57234;BME280;43090;52.604;13.318;2023-02-21T04:18:52;100575.38;;;8.16;100.00
57234;BME280;43090;52.604;13.318;2023-02-21T04:21:18;100572.34;;;8.22;100.00
57234;BME280;43090;52.604;13.318;2023-02-21T04:23:45;100583.94;;;8.21;100.00
57234;BME280;43090;52.604;13.318;2023-02-21T04:26:11;100579.38;;;8.23;100.00
57234;BME280;43090;52.604;13.318;2023-02-21T04:28:38;100574.16;;;8.22;100.00
57234;BME280;43090;52.604;13.318;2023-02-21T04:31:04;100593.66;;;8.22;100.00
57234;BME280;43090;52.604;13.318;2023-02-21T04:33:37;100590.78;;;8.25;100.00
57234;BME280;43090;52.604;13.318;2023-02-21T04:36:06;100582.63;;;8.28;100.00
57234;BME280;43090;52.604;13.318;2023-02-21T04:38:33;100574.63;;;8.28;100.00
57234;BME280;43090;52.604;13.318;2023-02-21T04:40:59;100589.09;;;8.24;100.00
57234;BME280;43090;52.604;13.318;2023-02-21T04:43:26;100588.13;;;8.25;100.00
57234;BME280;43090;52.604;13.318;2023-02-21T04:45:52;100582.78;;;8.25;100.00
57234;BME280;43090;52.604;13.318;2023-02-21T04:48:19;100573.47;;;8.32;100.00
57234;BME280;43090;52.604;13.318;2023-02-21T04:50:45;100586.78;;;8.32;100.00
57234;BME280;43090;52.604;13.318;2023-02-21T04:53:12;100583.56;;;8.27;100.00
57234;BME280;43090;52.604;13.318;2023-02-21T04:55:38;100578.81;;;8.18;100.00
57234;BME280;43090;52.604;13.318;2023-02-21T04:58:05;100586.06;;;8.16;100.00
57234;BME280;43090;52.604;13.318;2023-02-21T05:00:35;100575.69;;;8.11;100.00
57234;BME280;43090;52.604;13.318;2023-02-21T05:03:01;100582.28;;;8.06;100.00
57234;BME280;43090;52.604;13.318;2023-02-21T05:05:30;100589.09;;;8.24;100.00
57234;BME280;43090;52.604;13.318;2023-02-21T05:07:59;100587.09;;;8.13;100.00
57234;BME280;43090;52.604;13.318;2023-02-21T05:10:26;100581.50;;;8.18;100.00
57234;BME280;43090;52.604;13.318;2023-02-21T05:13:10;100584.06;;;8.05;100.00
57234;BME280;43090;52.604;13.318;2023-02-21T05:15:36;100586.16;;;8.00;100.00
57234;BME280;43090;52.604;13.318;2023-02-21T05:18:03;100588.66;;;8.03;100.00
57234;BME280;43090;52.604;13.318;2023-02-21T05:20:29;100591.41;;;8.01;100.00
57234;BME280;43090;52.604;13.318;2023-02-21T05:22:57;100586.56;;;7.94;100.00
57234;BME280;43090;52.604;13.318;2023-02-21T05:25:37;100581.25;;;7.94;100.00
57234;BME280;43090;52.604;13.318;2023-02-21T05:28:03;100589.78;;;7.99;100.00
57234;BME280;43090;52.604;13.318;2023-02-21T05:30:29;100585.13;;;8.03;100.00
57234;BME280;43090;52.604;13.318;2023-02-21T05:32:56;100590.28;;;8.06;100.00
57234;BME280;43090;52.604;13.318;2023-02-21T05:35:22;100597.69;;;8.00;100.00
57234;BME280;43090;52.604;13.318;2023-02-21T05:37:49;100599.78;;;7.95;100.00
57234;BME280;43090;52.604;13.318;2023-02-21T05:40:15;100593.22;;;8.01;100.00
57234;BME280;43090;52.604;13.318;2023-02-21T05:42:42;100590.91;;;8.09;100.00
57234;BME280;43090;52.604;13.318;2023-02-21T05:45:09;100594.16;;;8.00;100.00
57234;BME280;43090;52.604;13.318;2023-02-21T05:50:36;100599.41;;;8.01;100.00
57234;BME280;43090;52.604;13.318;2023-02-21T05:53:05;100607.13;;;8.06;100.00
57234;BME280;43090;52.604;13.318;2023-02-21T05:55:31;100607.31;;;8.03;100.00
57234;BME280;43090;52.604;13.318;2023-02-21T05:57:58;100603.22;;;7.97;100.00
57234;BME280;43090;52.604;13.318;2023-02-21T06:00:25;100614.53;;;8.01;100.00
57234;BME280;43090;52.604;13.318;2023-02-21T06:02:53;100615.22;;;8.05;100.00
57234;BME280;43090;52.604;13.318;2023-02-21T06:05:20;100621.88;;;8.12;100.00
57234;BME280;43090;52.604;13.318;2023-02-21T06:07:46;100625.31;;;7.99;100.00
57234;BME280;43090;52.604;13.318;2023-02-21T06:10:17;100631.88;;;7.94;100.00
57234;BME280;43090;52.604;13.318;2023-02-21T06:12:44;100632.16;;;7.89;100.00
57234;BME280;43090;52.604;13.318;2023-02-21T06:15:10;100638.28;;;8.06;100.00
57234;BME280;43090;52.604;13.318;2023-02-21T06:17:38;100641.50;;;7.96;100.00
57234;BME280;43090;52.604;13.318;2023-02-21T06:20:05;100634.06;;;8.01;100.00
57234;BME280;43090;52.604;13.318;2023-02-21T06:22:32;100633.50;;;7.96;100.00
57234;BME280;43090;52.604;13.318;2023-02-21T06:24:59;100651.88;;;8.01;100.00
57234;BME280;43090;52.604;13.318;2023-02-21T06:27:25;100654.84;;;7.96;100.00
57234;BME280;43090;52.604;13.318;2023-02-21T06:29:52;100659.66;;;8.04;100.00
57234;BME280;43090;52.604;13.318;2023-02-21T06:32:18;100660.44;;;8.06;100.00
57234;BME280;43090;52.604;13.318;2023-02-21T06:34:44;100665.09;;;8.03;100.00
57234;BME280;43090;52.604;13.318;2023-02-21T06:37:11;100661.97;;;8.10;100.00
57234;BME280;43090;52.604;13.318;2023-02-21T06:39:38;100666.81;;;8.04;100.00
57234;BME280;43090;52.604;13.318;2023-02-21T06:42:04;100664.06;;;8.05;100.00
57234;BME280;43090;52.604;13.318;2023-02-21T06:44:32;100667.59;;;8.06;100.00
57234;BME280;43090;52.604;13.318;2023-02-21T06:47:37;100666.25;;;8.13;100.00
57234;BME280;43090;52.604;13.318;2023-02-21T06:50:32;100677.50;;;8.04;100.00
57234;BME280;43090;52.604;13.318;2023-02-21T06:53:08;100683.59;;;8.06;100.00
57234;BME280;43090;52.604;13.318;2023-02-21T06:58:46;100693.50;;;8.04;100.00
57234;BME280;43090;52.604;13.318;2023-02-21T07:01:24;100685.88;;;8.12;100.00
57234;BME280;43090;52.604;13.318;2023-02-21T07:07:18;100705.47;;;8.11;100.00
57234;BME280;43090;52.604;13.318;2023-02-21T07:09:51;100703.59;;;8.13;100.00
57234;BME280;43090;52.604;13.318;2023-02-21T07:12:27;100714.06;;;8.16;100.00
57234;BME280;43090;52.604;13.318;2023-02-21T07:18:35;100725.31;;;8.36;100.00
57234;BME280;43090;52.604;13.318;2023-02-21T07:21:02;100740.28;;;8.38;100.00
57234;BME280;43090;52.604;13.318;2023-02-21T07:23:28;100737.59;;;8.24;100.00
57234;BME280;43090;52.604;13.318;2023-02-21T07:25:54;100744.06;;;8.20;100.00
57234;BME280;43090;52.604;13.318;2023-02-21T07:28:21;100747.69;;;8.33;100.00
57234;BME280;43090;52.604;13.318;2023-02-21T07:30:47;100750.28;;;8.34;100.00
57234;BME280;43090;52.604;13.318;2023-02-21T07:33:14;100747.91;;;8.30;100.00
57234;BME280;43090;52.604;13.318;2023-02-21T07:46:00;100751.81;;;8.24;100.00
57234;BME280;43090;52.604;13.318;2023-02-21T07:51:55;100754.31;;;8.56;100.00
57234;BME280;43090;52.604;13.318;2023-02-21T07:57:53;100760.69;;;8.39;100.00
57234;BME280;43090;52.604;13.318;2023-02-21T08:04:02;100755.25;;;8.41;100.00
57234;BME280;43090;52.604;13.318;2023-02-21T08:13:30;100784.25;;;8.61;100.00
57234;BME280;43090;52.604;13.318;2023-02-21T08:19:21;100789.75;;;8.87;100.00
57234;BME280;43090;52.604;13.318;2023-02-21T08:21:47;100803.78;;;8.76;100.00
57234;BME280;43090;52.604;13.318;2023-02-21T08:24:18;100797.78;;;8.73;100.00
57234;BME280;43090;52.604;13.318;2023-02-21T08:26:56;100798.94;;;8.69;100.00
57234;BME280;43090;52.604;13.318;2023-02-21T08:33:08;100804.22;;;8.40;100.00
57234;BME280;43090;52.604;13.318;2023-02-21T09:36:37;100847.25;;;8.93;100.00
57234;BME280;43090;52.604;13.318;2023-02-21T09:39:44;100856.13;;;8.79;100.00
57234;BME280;43090;52.604;13.318;2023-02-21T09:56:37;100871.00;;;8.97;87.11
57234;BME280;43090;52.604;13.318;2023-02-21T10:38:15;100885.56;;;9.35;85.84
57234;BME280;43090;52.604;13.318;2023-02-21T11:13:00;100899.13;;;9.46;85.06
57234;BME280;43090;52.604;13.318;2023-02-21T11:26:46;100904.25;;;9.49;81.88
57234;BME280;43090;52.604;13.318;2023-02-21T12:12:58;100896.09;;;9.24;76.13
57234;BME280;43090;52.604;13.318;2023-02-21T12:58:25;100904.56;;;9.45;68.05
57234;BME280;43090;52.604;13.318;2023-02-21T13:01:32;100905.31;;;9.47;68.44
57234;BME280;43090;52.604;13.318;2023-02-21T13:10:24;100900.38;;;9.41;72.16
57234;BME280;43090;52.604;13.318;2023-02-21T13:13:14;100904.66;;;9.43;69.84
57234;BME280;43090;52.604;13.318;2023-02-21T13:33:02;100893.13;;;9.14;70.16
57234;BME280;43090;52.604;13.318;2023-02-21T13:35:47;100898.09;;;9.20;68.99
57234;BME280;43090;52.604;13.318;2023-02-21T14:24:24;100915.94;;;9.20;75.88
57234;BME280;43090;52.604;13.318;2023-02-21T14:26:53;100901.81;;;9.17;74.79
57234;BME280;43090;52.604;13.318;2023-02-21T14:29:31;100909.16;;;8.99;74.74
57234;BME280;43090;52.604;13.318;2023-02-21T14:38:14;100906.78;;;9.09;76.89
57234;BME280;43090;52.604;13.318;2023-02-21T14:41:00;100909.72;;;9.19;76.37
57234;BME280;43090;52.604;13.318;2023-02-21T14:57:57;100913.84;;;9.25;74.31
57234;BME280;43090;52.604;13.318;2023-02-21T15:03:19;100915.72;;;9.37;73.47
57234;BME280;43090;52.604;13.318;2023-02-21T15:08:39;100921.47;;;9.16;74.10
57234;BME280;43090;52.604;13.318;2023-02-21T15:11:17;100919.09;;;9.26;73.06
57234;BME280;43090;52.604;13.318;2023-02-21T15:16:39;100925.06;;;9.30;73.43
57234;BME280;43090;52.604;13.318;2023-02-21T15:22:14;100936.06;;;9.11;76.25
57234;BME280;43090;52.604;13.318;2023-02-21T17:00:59;101008.97;;;7.72;90.25
57234;BME280;43090;52.604;13.318;2023-02-21T17:11:02;101020.75;;;7.68;93.22
57234;BME280;43090;52.604;13.318;2023-02-21T17:34:59;101035.03;;;6.63;98.22
57234;BME280;43090;52.604;13.318;2023-02-21T17:38:04;101041.13;;;6.48;100.00
57234;BME280;43090;52.604;13.318;2023-02-21T17:40:44;101048.91;;;6.88;99.14
57234;BME280;43090;52.604;13.318;2023-02-21T17:50:22;101061.56;;;6.65;100.00
57234;BME280;43090;52.604;13.318;2023-02-21T17:52:53;101062.00;;;6.75;100.00
57234;BME280;43090;52.604;13.318;2023-02-21T17:55:48;101060.94;;;6.60;100.00
57234;BME280;43090;52.604;13.318;2023-02-21T17:58:39;101063.22;;;6.67;100.00
57234;BME280;43090;52.604;13.318;2023-02-21T18:01:20;101073.47;;;6.58;100.00
57234;BME280;43090;52.604;13.318;2023-02-21T18:04:05;101078.41;;;6.65;100.00
57234;BME280;43090;52.604;13.318;2023-02-21T18:06:51;101077.47;;;6.66;100.00
57234;BME280;43090;52.604;13.318;2023-02-21T18:30:48;101099.50;;;6.51;100.00
57234;BME280;43090;52.604;13.318;2023-02-21T18:44:02;101092.19;;;6.37;100.00
57234;BME280;43090;52.604;13.318;2023-02-21T18:46:59;101089.03;;;6.29;100.00
57234;BME280;43090;52.604;13.318;2023-02-21T19:18:31;101108.28;;;7.42;92.33
57234;BME280;43090;52.604;13.318;2023-02-21T19:21:53;101110.88;;;7.44;91.58
57234;BME280;43090;52.604;13.318;2023-02-21T19:28:17;101109.38;;;7.56;90.57
57234;BME280;43090;52.604;13.318;2023-02-21T19:38:35;101105.81;;;7.73;89.59
57234;BME280;43090;52.604;13.318;2023-02-21T19:41:05;101124.88;;;7.65;90.67
57234;BME280;43090;52.604;13.318;2023-02-21T21:28:48;101177.13;;;7.15;100.00
57234;BME280;43090;52.604;13.318;2023-02-21T21:31:16;101183.25;;;7.17;100.00
57234;BME280;43090;52.604;13.318;2023-02-21T21:33:44;101181.56;;;6.97;100.00
57234;BME280;43090;52.604;13.318;2023-02-21T21:36:12;101173.53;;;6.79;100.00
57234;BME280;43090;52.604;13.318;2023-02-21T21:38:38;101173.31;;;6.84;100.00
57234;BME280;43090;52.604;13.318;2023-02-21T21:41:06;101174.53;;;6.77;100.00
57234;BME280;43090;52.604;13.318;2023-02-21T21:43:42;101174.38;;;6.80;100.00
57234;BME280;43090;52.604;13.318;2023-02-21T21:46:09;101181.00;;;6.90;100.00
57234;BME280;43090;52.604;13.318;2023-02-21T21:48:38;101180.88;;;7.11;100.00
57234;BME280;43090;52.604;13.318;2023-02-21T21:51:06;101184.81;;;7.21;100.00
57234;BME280;43090;52.604;13.318;2023-02-21T21:57:04;101188.28;;;6.87;100.00
57234;BME280;43090;52.604;13.318;2023-02-21T21:59:31;101180.22;;;6.69;100.00
57234;BME280;43090;52.604;13.318;2023-02-21T22:02:00;101190.50;;;6.96;100.00
57234;BME280;43090;52.604;13.318;2023-02-21T22:04:26;101179.88;;;6.77;100.00
57234;BME280;43090;52.604;13.318;2023-02-21T22:06:54;101190.94;;;6.87;100.00
57234;BME280;43090;52.604;13.318;2023-02-21T22:09:21;101187.06;;;6.75;100.00
57234;BME280;43090;52.604;13.318;2023-02-21T22:14:45;101190.88;;;6.88;100.00
57234;BME280;43090;52.604;13.318;2023-02-21T22:17:11;101182.03;;;6.69;100.00
57234;BME280;43090;52.604;13.318;2023-02-21T22:19:38;101188.00;;;6.74;100.00
57234;BME280;43090;52.604;13.318;2023-02-21T22:22:04;101181.22;;;6.86;100.00
57234;BME280;43090;52.604;13.318;2023-02-21T22:24:33;101192.59;;;6.70;100.00
57234;BME280;43090;52.604;13.318;2023-02-21T22:27:00;101188.78;;;6.76;100.00
57234;BME280;43090;52.604;13.318;2023-02-21T22:29:27;101187.19;;;6.72;100.00
57234;BME280;43090;52.604;13.318;2023-02-21T22:31:58;101197.56;;;6.78;100.00
57234;BME280;43090;52.604;13.318;2023-02-21T22:34:24;101200.88;;;6.64;100.00
57234;BME280;43090;52.604;13.318;2023-02-21T22:40:11;101194.56;;;6.47;100.00
57234;BME280;43090;52.604;13.318;2023-02-21T22:42:38;101194.53;;;6.66;100.00
57234;BME280;43090;52.604;13.318;2023-02-21T22:45:05;101193.75;;;6.64;100.00
57234;BME280;43090;52.604;13.318;2023-02-21T22:47:31;101194.63;;;6.65;100.00
57234;BME280;43090;52.604;13.318;2023-02-21T22:49:58;101202.59;;;6.65;100.00
57234;BME280;43090;52.604;13.318;2023-02-21T22:52:25;101196.28;;;6.48;100.00
57234;BME280;43090;52.604;13.318;2023-02-21T22:54:51;101198.16;;;6.65;100.00
57234;BME280;43090;52.604;13.318;2023-02-21T22:57:18;101200.22;;;6.78;100.00
57234;BME280;43090;52.604;13.318;2023-02-21T22:59:44;101191.38;;;6.58;100.00
57234;BME280;43090;52.604;13.318;2023-02-21T23:02:11;101200.31;;;6.76;100.00
57234;BME280;43090;52.604;13.318;2023-02-21T23:04:38;101185.72;;;6.66;100.00
57234;BME280;43090;52.604;13.318;2023-02-21T23:07:04;101198.50;;;6.77;100.00
57234;BME280;43090;52.604;13.318;2023-02-21T23:09:31;101182.91;;;6.50;100.00
57234;BME280;43090;52.604;13.318;2023-02-21T23:12:02;101187.78;;;6.59;100.00
57234;BME280;43090;52.604;13.318;2023-02-21T23:14:29;101187.50;;;6.65;100.00
57234;BME280;43090;52.604;13.318;2023-02-21T23:17:01;101187.56;;;6.45;100.00
57234;BME280;43090;52.604;13.318;2023-02-21T23:19:28;101190.72;;;6.53;100.00
57234;BME280;43090;52.604;13.318;2023-02-21T23:21:55;101186.63;;;6.65;100.00
57234;BME280;43090;52.604;13.318;2023-02-21T23:24:25;101188.66;;;6.79;100.00
57234;BME280;43090;52.604;13.318;2023-02-21T23:26:53;101192.25;;;6.78;100.00
57234;BME280;43090;52.604;13.318;2023-02-21T23:29:21;101194.47;;;6.87;100.00
57234;BME280;43090;52.604;13.318;2023-02-21T23:31:49;101189.38;;;6.63;100.00
57234;BME280;43090;52.604;13.318;2023-02-21T23:34:19;101186.63;;;6.65;100.00
57234;BME280;43090;52.604;13.318;2023-02-21T23:36:46;101196.13;;;6.71;100.00
57234;BME280;43090;52.604;13.318;2023-02-21T23:39:14;101192.56;;;6.89;100.00
57234;BME280;43090;52.604;13.318;2023-02-21T23:41:41;101189.50;;;6.79;100.00
57234;BME280;43090;52.604;13.318;2023-02-21T23:44:09;101196.38;;;7.03;100.00
57234;BME280;43090;52.604;13.318;2023-02-21T23:46:37;101192.63;;;7.07;100.00
57234;BME280;43090;52.604;13.318;2023-02-21T23:49:12;101191.31;;;6.79;100.00
57234;BME280;43090;52.604;13.318;2023-02-21T23:51:41;101193.94;;;6.98;100.00
57234;BME280;43090;52.604;13.318;2023-02-21T23:54:08;101194.25;;;6.73;100.00
57234;BME280;43090;52.604;13.318;2023-02-21T23:56:35;101192.16;;;6.79;100.00
57234;BME280;43090;52.604;13.318;2023-02-21T23:59:02;101187.19;;;6.72;100.00
